| time (UTC) | temp F | wind direction | speed MPH | gust MPH | rain 1hr in | rain 24hr in | rain mn in | humidity % | barometer mb |
| 20260904183704 | 88 | 130 | 3.0 | 5.0 | 0.00 | 0.12 | 0.08 | 86 | 1014.9 |
| 20260904183203 | 88 | 135 | 2.0 | 6.0 | 0.00 | 0.12 | 0.08 | 86 | 1014.9 |
| 20260904181704 | 87 | 183 | 5.0 | 6.0 | 0.00 | 0.12 | 0.08 | 84 | 1014.9 |
| 20260904181204 | 87 | 195 | 3.0 | 6.0 | 0.00 | 0.12 | 0.08 | 83 | 1014.9 |
| 20260904180204 | 87 | 168 | 3.0 | 9.0 | 0.04 | 0.12 | 0.08 | 82 | 1014.9 |
| 20260904174703 | 87 | 168 | 2.0 | 6.0 | 0.08 | 0.12 | 0.08 | 82 | 1014.9 |
| 20260904174204 | 86 | 189 | 1.0 | 6.0 | 0.08 | 0.12 | 0.08 | 83 | 1014.9 |
| 20260904173704 | 86 | 134 | 3.0 | 8.0 | 0.08 | 0.12 | 0.08 | 84 | 1014.9 |
| 20260904173204 | 86 | 129 | 6.0 | 8.0 | 0.08 | 0.12 | 0.08 | 84 | 1014.9 |
| 20260904171704 | 86 | 144 | 3.0 | 6.0 | 0.08 | 0.12 | 0.08 | 91 | 1015.9 |
| 20260904171204 | 85 | 161 | 6.0 | 8.0 | 0.08 | 0.12 | 0.08 | 91 | 1015.9 |
| 20260904170704 | 86 | 118 | 5.0 | 8.0 | 0.08 | 0.12 | 0.08 | 92 | 1015.9 |
| 20260904164705 | 89 | 159 | 8.0 | 12.0 | 0.00 | 0.04 | 0.00 | 79 | 1015.9 |
| 20260904164203 | 89 | 160 | 12.0 | 15.0 | 0.00 | 0.04 | 0.00 | 77 | 1015.9 |
| 20260904163704 | 90 | 155 | 3.0 | 6.0 | 0.00 | 0.04 | 0.00 | 80 | 1015.9 |
| 20260904163204 | 90 | 136 | 3.0 | 6.0 | 0.00 | 0.04 | 0.00 | 80 | 1015.9 |
| 20260904161704 | 90 | 173 | 1.0 | 6.0 | 0.00 | 0.04 | 0.00 | 81 | 1015.9 |
| 20260904161203 | 90 | 160 | 4.0 | 6.0 | 0.00 | 0.04 | 0.00 | 81 | 1015.9 |
| 20260904160704 | 90 | 206 | 4.0 | 6.0 | 0.00 | 0.04 | 0.00 | 80 | 1015.9 |
| 20260904160203 | 90 | 134 | 5.0 | 7.0 | 0.00 | 0.04 | 0.00 | 79 | 1015.9 |
| 20260904154703 | 90 | 195 | 5.0 | 8.0 | 0.00 | 0.04 | 0.00 | 82 | 1015.9 |
| 20260904154204 | 89 | 166 | 5.0 | 8.0 | 0.00 | 0.04 | 0.00 | 84 | 1015.9 |
| 20260904153704 | 89 | 179 | 3.0 | 8.0 | 0.00 | 0.04 | 0.00 | 86 | 1015.9 |
| 20260904153203 | 89 | 257 | 1.0 | 7.0 | 0.00 | 0.04 | 0.00 | 85 | 1015.9 |
| 20260904151203 | 88 | 240 | 5.0 | 8.0 | 0.00 | 0.04 | 0.00 | 88 | 1015.9 |
| 20260904150703 | 88 | 211 | 5.0 | 9.0 | 0.00 | 0.04 | 0.00 | 88 | 1015.9 |
| 20260904150204 | 88 | 216 | 6.0 | 9.0 | 0.00 | 0.04 | 0.00 | 88 | 1015.9 |
| 20260904144705 | 88 | 221 | 3.0 | 6.0 | 0.00 | 0.04 | 0.00 | 89 | 1015.9 |
| 20260904144204 | 87 | 178 | 5.0 | 8.0 | 0.00 | 0.04 | 0.00 | 88 | 1015.9 |
| 20260904143703 | 88 | 205 | 5.0 | 8.0 | 0.00 | 0.04 | 0.00 | 88 | 1015.9 |
| 20260904143204 | 88 | 198 | 3.0 | 9.0 | 0.00 | 0.04 | 0.00 | 88 | 1015.9 |
| 20260904141704 | 87 | 165 | 6.0 | 8.0 | 0.00 | 0.04 | 0.00 | 91 | 1015.9 |
| 20260904141203 | 87 | 194 | 5.0 | 8.0 | 0.00 | 0.04 | 0.00 | 92 | 1015.9 |
| 20260904140705 | 87 | 211 | 6.0 | 9.0 | 0.00 | 0.04 | 0.00 | 95 | 1015.9 |
| 20260904140204 | 87 | 199 | 5.0 | 8.0 | 0.00 | 0.04 | 0.00 | 98 | 1014.9 |
| 20260904134703 | 86 | 215 | 3.0 | 8.0 | 0.00 | 0.04 | 0.00 | 99 | 1014.9 |
| 20260904134203 | 85 | 229 | 7.0 | 9.0 | 0.00 | 0.04 | 0.00 | 99 | 1014.9 |
| 20260904133704 | 85 | 222 | 6.0 | 8.0 | 0.00 | 0.04 | 0.00 | 99 | 1014.9 |
| 20260904133203 | 85 | 204 | 5.0 | 8.0 | 0.00 | 0.04 | 0.00 | 100 | 1014.9 |
| 20260904131703 | 83 | 232 | 5.0 | 8.0 | 0.00 | 0.04 | 0.00 | 100 | 1014.9 |
| 20260904131204 | 83 | 194 | 5.0 | 6.0 | 0.00 | 0.04 | 0.00 | 100 | 1014.9 |
| 20260904130704 | 83 | 233 | 3.0 | 6.0 | 0.00 | 0.04 | 0.00 | 100 | 1014.9 |
| 20260904130204 | 83 | 225 | 4.0 | 8.0 | 0.00 | 0.04 | 0.00 | 100 | 1014.9 |
| 20260904124703 | 82 | 229 | 3.0 | 5.0 | 0.00 | 0.04 | 0.00 | 100 | 1014.9 |
| 20260904124204 | 82 | 242 | 3.0 | 6.0 | 0.00 | 0.04 | 0.00 | 100 | 1014.9 |
| 20260904123703 | 81 | 213 | 3.0 | 5.0 | 0.00 | 0.04 | 0.00 | 100 | 1014.9 |
| 20260904123203 | 81 | 232 | 3.0 | 5.0 | 0.00 | 0.04 | 0.00 | 100 | 1014.9 |
| 20260904121203 | 80 | 201 | 0.0 | 0.0 | 0.00 | 0.04 | 0.00 | 100 | 1014.9 |
| 20260904120704 | 79 | 201 | 0.0 | 0.0 | 0.00 | 0.04 | 0.00 | 100 | 1014.9 |
| 20260904120203 | 79 | 201 | 0.0 | 0.0 | 0.00 | 0.04 | 0.00 | 100 | 1014.9 |
| 20260904114204 | 78 | 201 | 0.0 | 0.0 | 0.00 | 0.04 | 0.00 | 100 | 1013.9 |
| 20260904113704 | 78 | 202 | 0.0 | 0.0 | 0.00 | 0.04 | 0.00 | 100 | 1013.9 |
| 20260904113203 | 78 | 201 | 0.0 | 0.0 | 0.00 | 0.04 | 0.00 | 100 | 1013.9 |
| 20260904111704 | 78 | 201 | 0.0 | 0.0 | 0.00 | 0.04 | 0.00 | 100 | 1013.9 |
| 20260904111204 | 78 | 200 | 0.0 | 0.0 | 0.00 | 0.04 | 0.00 | 100 | 1013.9 |
| 20260904110703 | 78 | 200 | 0.0 | 0.0 | 0.00 | 0.04 | 0.00 | 100 | 1013.9 |
| 20260904110204 | 78 | 201 | 0.0 | 0.0 | 0.00 | 0.04 | 0.00 | 100 | 1013.9 |
| 20260904104704 | 78 | 201 | 0.0 | 0.0 | 0.00 | 0.04 | 0.00 | 100 | 1013.9 |
| 20260904104203 | 78 | 200 | 0.0 | 0.0 | 0.00 | 0.04 | 0.00 | 100 | 1013.9 |
| 20260904103704 | 78 | 200 | 0.0 | 0.0 | 0.00 | 0.04 | 0.00 | 100 | 1013.9 |
| 20260904103204 | 78 | 201 | 0.0 | 0.0 | 0.00 | 0.04 | 0.00 | 100 | 1013.9 |
| 20260904101704 | 78 | 200 | 0.0 | 0.0 | 0.00 | 0.04 | 0.00 | 100 | 1013.9 |
| 20260904100703 | 78 | 200 | 0.0 | 0.0 | 0.00 | 0.04 | 0.00 | 100 | 1013.9 |
| 20260904100204 | 78 | 200 | 0.0 | 0.0 | 0.00 | 0.04 | 0.00 | 100 | 1013.9 |
| 20260904094703 | 78 | 200 | 0.0 | 0.0 | 0.00 | 0.04 | 0.00 | 100 | 1013.9 |
| 20260904093705 | 78 | 201 | 0.0 | 0.0 | 0.00 | 0.04 | 0.00 | 100 | 1013.9 |
| 20260904093203 | 78 | 200 | 0.0 | 0.0 | 0.00 | 0.04 | 0.00 | 100 | 1012.9 |
| 20260904091704 | 78 | 200 | 0.0 | 0.0 | 0.00 | 0.04 | 0.00 | 100 | 1012.9 |
| 20260904090704 | 78 | 200 | 0.0 | 0.0 | 0.00 | 0.04 | 0.00 | 100 | 1012.9 |
| 20260904090203 | 78 | 200 | 0.0 | 0.0 | 0.00 | 0.04 | 0.00 | 100 | 1012.9 |
| 20260904084703 | 78 | 200 | 0.0 | 0.0 | 0.00 | 0.04 | 0.00 | 100 | 1012.9 |
| 20260904084203 | 78 | 201 | 0.0 | 0.0 | 0.00 | 0.04 | 0.00 | 100 | 1012.9 |
| 20260904083704 | 78 | 200 | 0.0 | 0.0 | 0.00 | 0.04 | 0.00 | 100 | 1012.9 |
| 20260904080704 | 79 | 200 | 0.0 | 0.0 | 0.00 | 0.04 | 0.00 | 100 | 1012.9 |
| 20260904080204 | 79 | 200 | 0.0 | 0.0 | 0.00 | 0.04 | 0.00 | 100 | 1012.9 |
| 20260904074704 | 79 | 201 | 0.0 | 0.0 | 0.00 | 0.04 | 0.00 | 100 | 1012.9 |
| 20260904074203 | 79 | 200 | 0.0 | 0.0 | 0.00 | 0.04 | 0.00 | 100 | 1012.9 |
| 20260904073704 | 79 | 200 | 0.0 | 0.0 | 0.00 | 0.04 | 0.00 | 100 | 1012.9 |
| 20260904073203 | 79 | 201 | 0.0 | 0.0 | 0.00 | 0.04 | 0.00 | 100 | 1012.9 |
| 20260904071703 | 79 | 200 | 0.0 | 0.0 | 0.00 | 0.04 | 0.00 | 100 | 1012.9 |
| 20260904071203 | 79 | 200 | 0.0 | 0.0 | 0.00 | 0.04 | 0.00 | 100 | 1012.9 |
| 20260904070703 | 79 | 200 | 0.0 | 0.0 | 0.00 | 0.04 | 0.00 | 100 | 1012.9 |
| 20260904070204 | 79 | 200 | 0.0 | 0.0 | 0.00 | 0.04 | 0.00 | 100 | 1012.9 |
| 20260904064704 | 79 | 200 | 0.0 | 0.0 | 0.00 | 0.04 | 0.00 | 100 | 1012.9 |
| 20260904063704 | 79 | 200 | 0.0 | 0.0 | 0.00 | 0.04 | 0.00 | 100 | 1012.9 |
| 20260904063204 | 79 | 200 | 0.0 | 3.0 | 0.00 | 0.04 | 0.00 | 100 | 1013.9 |
| 20260904061704 | 79 | 187 | 0.0 | 0.0 | 0.00 | 0.04 | 0.00 | 100 | 1013.9 |
| 20260904061205 | 79 | 175 | 0.0 | 0.0 | 0.00 | 0.04 | 0.00 | 100 | 1013.9 |
| 20260904060705 | 80 | 167 | 0.0 | 0.0 | 0.00 | 0.04 | 0.00 | 100 | 1013.9 |
| 20260904060203 | 80 | 167 | 0.0 | 0.0 | 0.00 | 0.04 | 0.00 | 100 | 1013.9 |
| 20260904054703 | 80 | 167 | 0.0 | 0.0 | 0.00 | 0.04 | 0.00 | 100 | 1013.9 |
| 20260904054203 | 80 | 167 | 0.0 | 0.0 | 0.00 | 0.04 | 0.00 | 100 | 1013.9 |
| 20260904053203 | 80 | 156 | 0.0 | 0.0 | 0.00 | 0.04 | 0.00 | 100 | 1013.9 |
| 20260904051703 | 80 | 145 | 0.0 | 0.0 | 0.00 | 0.08 | 0.00 | 100 | 1013.9 |
| 20260904051203 | 80 | 145 | 0.0 | 0.0 | 0.00 | 0.08 | 0.00 | 100 | 1013.9 |
| 20260904050704 | 80 | 149 | 0.0 | 2.0 | 0.00 | 0.08 | 0.00 | 100 | 1013.9 |
| 20260904050203 | 80 | 159 | 0.0 | 3.0 | 0.00 | 0.08 | 0.00 | 100 | 1013.9 |
| 20260904044703 | 80 | 143 | 0.0 | 3.0 | 0.00 | 0.31 | 0.00 | 100 | 1013.9 |
| 20260904044205 | 80 | 145 | 1.0 | 3.0 | 0.00 | 0.31 | 0.00 | 100 | 1013.9 |
| 20260904043703 | 80 | 135 | 3.0 | 5.0 | 0.00 | 0.31 | 0.00 | 100 | 1013.9 |
| 20260904043203 | 80 | 135 | 0.0 | 6.0 | 0.00 | 0.31 | 0.00 | 100 | 1013.9 |
| 20260904041704 | 80 | 147 | 3.0 | 5.0 | 0.00 | 0.31 | 0.00 | 100 | 1013.9 |
| 20260904041204 | 80 | 145 | 3.0 | 6.0 | 0.00 | 0.31 | 0.00 | 100 | 1013.9 |
| 20260904040704 | 80 | 145 | 5.0 | 6.0 | 0.00 | 0.31 | 0.00 | 100 | 1013.9 |
| 20260904040203 | 80 | 120 | 5.0 | 8.0 | 0.00 | 0.31 | 0.00 | 100 | 1014.9 |
| 20260904034204 | 79 | 126 | 5.0 | 7.0 | 0.00 | 0.31 | 0.31 | 100 | 1013.9 |
| 20260904033204 | 79 | 120 | 2.0 | 3.0 | 0.00 | 0.31 | 0.31 | 100 | 1013.9 |
| 20260904031704 | 79 | 81 | 0.0 | 2.0 | 0.00 | 0.31 | 0.31 | 100 | 1013.9 |
| 20260904031203 | 79 | 86 | 0.0 | 0.0 | 0.00 | 0.31 | 0.31 | 100 | 1013.9 |
| 20260904030703 | 79 | 211 | 0.0 | 0.0 | 0.00 | 0.31 | 0.31 | 100 | 1013.9 |
| 20260904030203 | 80 | 211 | 0.0 | 0.0 | 0.00 | 0.31 | 0.31 | 100 | 1013.9 |
| 20260904024703 | 80 | 211 | 0.0 | 0.0 | 0.00 | 0.31 | 0.31 | 100 | 1013.9 |
| 20260904024203 | 80 | 211 | 0.0 | 0.0 | 0.00 | 0.31 | 0.31 | 100 | 1013.9 |
| 20260904023704 | 80 | 211 | 0.0 | 0.0 | 0.00 | 0.31 | 0.31 | 100 | 1013.9 |
| 20260904023203 | 80 | 211 | 0.0 | 0.0 | 0.00 | 0.31 | 0.31 | 100 | 1014.9 |
| 20260904021704 | 80 | 211 | 0.0 | 0.0 | 0.00 | 0.31 | 0.31 | 100 | 1014.9 |
| 20260904020704 | 80 | 211 | 0.0 | 0.0 | 0.00 | 0.31 | 0.31 | 100 | 1014.9 |
| 20260904020204 | 80 | 211 | 0.0 | 0.0 | 0.00 | 0.31 | 0.31 | 100 | 1014.9 |
| 20260904014704 | 80 | 211 | 0.0 | 0.0 | 0.00 | 0.31 | 0.31 | 100 | 1013.9 |
| 20260904014204 | 80 | 211 | 0.0 | 0.0 | 0.00 | 0.31 | 0.31 | 100 | 1013.9 |
| 20260904013703 | 80 | 211 | 0.0 | 0.0 | 0.00 | 0.31 | 0.31 | 100 | 1013.9 |
| 20260904011704 | 80 | 211 | 0.0 | 0.0 | 0.00 | 0.31 | 0.31 | 100 | 1013.9 |
| 20260904011203 | 80 | 211 | 0.0 | 0.0 | 0.00 | 0.31 | 0.31 | 100 | 1013.9 |
| 20260904010704 | 80 | 134 | 0.0 | 0.0 | 0.00 | 0.31 | 0.31 | 100 | 1013.9 |
| 20260904010204 | 80 | 134 | 0.0 | 3.0 | 0.00 | 0.31 | 0.31 | 100 | 1013.9 |
| 20260904004704 | 79 | 115 | 2.0 | 3.0 | 0.00 | 0.31 | 0.31 | 100 | 1013.9 |
| 20260904003704 | 79 | 105 | 0.0 | 3.0 | 0.00 | 0.31 | 0.31 | 100 | 1013.9 |
| 20260904003204 | 79 | 110 | 0.0 | 3.0 | 0.00 | 0.31 | 0.31 | 100 | 1013.9 |
| 20260904001704 | 80 | 84 | 0.0 | 0.0 | 0.00 | 0.31 | 0.31 | 100 | 1013.9 |
| 20260904001204 | 80 | 84 | 0.0 | 0.0 | 0.00 | 0.31 | 0.31 | 100 | 1013.9 |
| 20260904000704 | 79 | 84 | 0.0 | 0.0 | 0.00 | 0.31 | 0.31 | 100 | 1013.9 |
| 20260903234703 | 79 | 114 | 0.0 | 0.0 | 0.00 | 0.31 | 0.31 | 100 | 1013.9 |
| 20260903234204 | 79 | 109 | 2.0 | 6.0 | 0.00 | 0.31 | 0.31 | 100 | 1013.9 |
| 20260903233704 | 80 | 140 | 0.0 | 5.0 | 0.00 | 0.31 | 0.31 | 100 | 1013.9 |
| 20260903233205 | 80 | 139 | 3.0 | 3.0 | 0.00 | 0.31 | 0.31 | 100 | 1012.9 |
| 20260903231703 | 80 | 127 | 3.0 | 5.0 | 0.00 | 0.31 | 0.31 | 100 | 1012.9 |
| 20260903231203 | 80 | 103 | 2.0 | 3.0 | 0.00 | 0.31 | 0.31 | 99 | 1012.9 |
| 20260903230703 | 80 | 114 | 1.0 | 3.0 | 0.00 | 0.31 | 0.31 | 99 | 1012.9 |
| 20260903230204 | 81 | 99 | 0.0 | 3.0 | 0.00 | 0.31 | 0.31 | 98 | 1013.9 |
| 20260903223703 | 81 | 184 | 0.0 | 2.0 | 0.00 | 0.31 | 0.31 | 97 | 1013.9 |
| 20260903223204 | 81 | 175 | 2.0 | 3.0 | 0.00 | 0.31 | 0.31 | 96 | 1013.9 |
| 20260903221704 | 81 | 194 | 1.0 | 3.0 | 0.00 | 0.31 | 0.31 | 96 | 1012.9 |
| 20260903220704 | 81 | 143 | 0.0 | 2.0 | 0.00 | 0.31 | 0.31 | 96 | 1012.9 |
| 20260903220203 | 82 | 139 | 3.0 | 3.0 | 0.04 | 0.31 | 0.31 | 96 | 1012.9 |
| 20260903214703 | 82 | 194 | 0.0 | 0.0 | 0.04 | 0.31 | 0.31 | 96 | 1012.9 |
| 20260903214204 | 82 | 194 | 0.0 | 0.0 | 0.04 | 0.31 | 0.31 | 96 | 1012.9 |
| 20260903213704 | 82 | 221 | 2.0 | 3.0 | 0.04 | 0.31 | 0.31 | 96 | 1012.9 |
| 20260903213203 | 82 | 247 | 2.0 | 3.0 | 0.04 | 0.31 | 0.31 | 95 | 1012.9 |
| 20260903211704 | 82 | 218 | 3.0 | 6.0 | 0.04 | 0.31 | 0.31 | 94 | 1012.9 |
| 20260903211204 | 82 | 227 | 5.0 | 8.0 | 0.04 | 0.31 | 0.31 | 93 | 1012.9 |
| 20260903210704 | 83 | 197 | 6.0 | 13.0 | 0.04 | 0.31 | 0.31 | 91 | 1012.9 |
| 20260903210203 | 83 | 183 | 7.0 | 16.0 | 0.00 | 0.28 | 0.28 | 86 | 1012.9 |
| 20260903204704 | 86 | 187 | 9.0 | 13.0 | 0.00 | 0.28 | 0.28 | 89 | 1011.9 |
| 20260903204204 | 86 | 171 | 5.0 | 6.0 | 0.00 | 0.28 | 0.28 | 89 | 1011.9 |
| 20260903203704 | 86 | 165 | 5.0 | 9.0 | 0.00 | 0.28 | 0.28 | 89 | 1011.9 |
| 20260903203204 | 86 | 127 | 7.0 | 10.0 | 0.00 | 0.28 | 0.28 | 88 | 1011.9 |
| 20260903201703 | 86 | 106 | 6.0 | 8.0 | 0.00 | 0.28 | 0.28 | 88 | 1012.9 |
| 20260903201204 | 86 | 115 | 4.0 | 8.0 | 0.00 | 0.28 | 0.28 | 88 | 1012.9 |
| 20260903200704 | 86 | 112 | 3.0 | 8.0 | 0.00 | 0.28 | 0.28 | 88 | 1012.9 |
| 20260903200204 | 86 | 132 | 7.0 | 10.0 | 0.00 | 0.28 | 0.28 | 88 | 1012.9 |
| 20260903194704 | 86 | 104 | 6.0 | 9.0 | 0.00 | 0.28 | 0.28 | 88 | 1011.9 |
| 20260903194204 | 86 | 94 | 6.0 | 12.0 | 0.00 | 0.28 | 0.28 | 89 | 1011.9 |
| 20260903193704 | 86 | 140 | 6.0 | 12.0 | 0.00 | 0.28 | 0.28 | 89 | 1011.9 |
| 20260903193204 | 87 | 92 | 7.0 | 9.0 | 0.00 | 0.28 | 0.28 | 88 | 1012.9 |
| 20260903191704 | 87 | 113 | 6.0 | 8.0 | 0.00 | 0.28 | 0.28 | 89 | 1012.9 |
| 20260903191203 | 87 | 104 | 7.0 | 9.0 | 0.00 | 0.28 | 0.28 | 89 | 1012.9 |
| 20260903190704 | 87 | 98 | 7.0 | 8.0 | 0.00 | 0.28 | 0.28 | 89 | 1012.9 |
| 20260903190204 | 87 | 88 | 5.0 | 8.0 | 0.00 | 0.28 | 0.28 | 90 | 1012.9 |
| 20260903184704 | 87 | 107 | 6.0 | 8.0 | 0.00 | 0.28 | 0.28 | 90 | 1012.9 |
| 20260903184203 | 87 | 99 | 6.0 | 9.0 | 0.00 | 0.28 | 0.28 | 90 | 1012.9 |